Pacific Reliance — WDI7757 — position and weather

sailwx.info

Track history (hours):
 
Tides and Currents Weather Stations Pressure Air Temp Water Temp Dewpoint Dewpoint Depression Visibility Wind Speed Wind Dir Waves Ship Positions

Pacific Reliance

Owner: Intrepid Ship Management, INC, jacksonville, FL. More information available from US FCC via Universal Licensing System and Coast Guard Vessel Documentation Center.

Last reported at 2017-Nov-23 10:59 UTC. Time now 2017-Nov-23 11:19 UTC.
Position N 39°51' W 075°16'.

Length 205 m; draft 6.5 m.

Type: Towing. MMSI: 367036000.

Date/timePositionNaut miles runAvg speedWind from/ knotsBaromVisibWave heightAir tempDewpointWater temp
2017-Nov-23 10:59N 39°51' W 075°16'0 0.0
2017-Nov-23 10:29N 39°51' W 075°16'0 0.0
2017-Nov-23 09:59N 39°51' W 075°16'0 0.0
2017-Nov-23 09:29N 39°51' W 075°16'0 0.0
2017-Nov-23 08:59N 39°51' W 075°16'0 0.0
2017-Nov-23 08:29N 39°51' W 075°16'0 0.0
2017-Nov-23 07:59N 39°51' W 075°16'0 0.0
2017-Nov-23 07:29N 39°51' W 075°16'0 0.0
2017-Nov-23 06:59N 39°51' W 075°16'0 0.0
2017-Nov-23 06:29N 39°51' W 075°16'0 0.0
2017-Nov-23 05:59N 39°51' W 075°16'0 0.0
2017-Nov-23 05:29N 39°51' W 075°16'0 0.0
2017-Nov-23 04:59N 39°51' W 075°16'0 0.0
2017-Nov-23 04:29N 39°51' W 075°16'0 0.0
2017-Nov-23 03:59N 39°51' W 075°16'0 0.0
2017-Nov-23 03:29N 39°51' W 075°16'0 0.0
2017-Nov-23 02:59N 39°51' W 075°16'0 0.0
2017-Nov-23 02:29N 39°51' W 075°16'0 0.0
2017-Nov-23 01:59N 39°51' W 075°16'0 0.0
2017-Nov-23 01:29N 39°51' W 075°16'0 0.0
2017-Nov-23 00:59N 39°51' W 075°16'0 0.0
2017-Nov-23 00:29N 39°51' W 075°16'0 0.0
2017-Nov-22 23:59N 39°51' W 075°16'0 0.0
2017-Nov-22 23:29N 39°51' W 075°16'0 0.0
2017-Nov-22 22:59N 39°51' W 075°16'0 0.0
2017-Nov-22 22:29N 39°51' W 075°16'0 0.0
2017-Nov-22 21:59N 39°51' W 075°16'0 0.0
2017-Nov-22 21:29N 39°51' W 075°16'0 0.0
2017-Nov-22 20:59N 39°51' W 075°16'0 0.0
2017-Nov-22 20:29N 39°51' W 075°16'0 0.0
2017-Nov-22 19:59N 39°51' W 075°16'0 0.0
2017-Nov-22 19:29N 39°51' W 075°16'  
2017-Nov-20 00:30N 39°01' W 075°14'1 1.1
2017-Nov-20 00:00N 39°00' W 075°13'  
2017-Nov-16 09:35N 27°02' W 079°53'1 9.4
2017-Nov-16 09:30N 27°01' W 079°53'5 9.4
2017-Nov-16 09:00N 26°57' W 079°53'5 9.1
2017-Nov-16 08:30N 26°52' W 079°53'5 9.3
2017-Nov-16 07:59N 26°47' W 079°53'5 9.8
2017-Nov-16 07:30N 26°43' W 079°53'5 9.3
2017-Nov-16 07:00N 26°38' W 079°53'5 9.3
2017-Nov-16 06:30N 26°34' W 079°54'5 9.2
2017-Nov-16 06:00N 26°29' W 079°55'5 9.5
2017-Nov-16 05:30N 26°24' W 079°55'5 9.9
2017-Nov-16 05:00N 26°19' W 079°56'5 9.8
2017-Nov-16 04:30N 26°15' W 079°56'5 9.4
2017-Nov-16 04:00N 26°10' W 079°57'5 9.6
2017-Nov-16 03:30N 26°06' W 080°00'5 9.2
2017-Nov-16 03:00N 26°06' W 080°05'2 3.4
2017-Nov-16 02:30N 26°06' W 080°07'0 0.0
2017-Nov-16 02:00N 26°06' W 080°07'0 0.0
2017-Nov-16 01:30N 26°06' W 080°07'0 0.0
2017-Nov-16 01:00N 26°06' W 080°07'0 0.0
2017-Nov-16 00:30N 26°06' W 080°07'0 0.0
2017-Nov-15 23:51N 26°06' W 080°07'0 0.0
2017-Nov-15 23:21N 26°06' W 080°07'0 0.0
2017-Nov-15 22:54N 26°06' W 080°07'0 0.0
2017-Nov-15 22:24N 26°06' W 080°07'0 0.0
2017-Nov-15 21:54N 26°06' W 080°07'0 0.0
2017-Nov-15 21:24N 26°06' W 080°07'0 0.0
2017-Nov-15 20:54N 26°06' W 080°07'0 0.0
2017-Nov-15 20:24N 26°06' W 080°07'0 0.0
2017-Nov-15 19:54N 26°06' W 080°07'0 0.0
2017-Nov-15 19:27N 26°06' W 080°07'0 0.0
2017-Nov-15 18:57N 26°06' W 080°07'0 0.0
2017-Nov-15 18:27N 26°06' W 080°07'0 0.0
2017-Nov-15 17:57N 26°06' W 080°07'0 0.0
2017-Nov-15 17:27N 26°06' W 080°07'0 0.0
2017-Nov-15 17:00N 26°06' W 080°07'0 0.0
2017-Nov-15 16:30N 26°06' W 080°07'0 0.0
2017-Nov-15 15:57N 26°06' W 080°07'0 0.0
2017-Nov-15 15:30N 26°06' W 080°07'0 0.0
2017-Nov-15 15:00N 26°06' W 080°07'0 0.0
2017-Nov-15 14:30N 26°06' W 080°07'0 0.0
2017-Nov-15 14:00N 26°06' W 080°07'0 0.0
2017-Nov-15 13:30N 26°06' W 080°07'0 0.0
2017-Nov-15 13:00N 26°06' W 080°07'0 0.0
2017-Nov-15 12:30N 26°06' W 080°07'0 0.0
2017-Nov-15 12:00N 26°06' W 080°07'0 0.0
2017-Nov-15 11:30N 26°06' W 080°07'0 0.0
2017-Nov-15 11:00N 26°06' W 080°07'0 0.0
2017-Nov-15 10:30N 26°06' W 080°07'0 0.0
2017-Nov-15 09:51N 26°06' W 080°07'0 0.0
2017-Nov-15 09:21N 26°06' W 080°07'0 0.0
2017-Nov-15 08:51N 26°06' W 080°07'0 0.0
2017-Nov-15 08:24N 26°06' W 080°07'0 0.0
2017-Nov-15 07:54N 26°06' W 080°07'0 0.0
2017-Nov-15 07:24N 26°06' W 080°07'0 0.0
2017-Nov-15 06:54N 26°06' W 080°07'0 0.0
2017-Nov-15 06:24N 26°06' W 080°07'0 0.0
2017-Nov-15 05:57N 26°06' W 080°07'0 0.0
2017-Nov-15 05:27N 26°06' W 080°07'0 0.0
2017-Nov-15 04:57N 26°06' W 080°07'0 0.0
2017-Nov-15 04:27N 26°06' W 080°07'0 0.0
2017-Nov-15 03:57N 26°06' W 080°07'0 0.0
2017-Nov-15 03:27N 26°06' W 080°07'0 0.0
2017-Nov-15 03:00N 26°06' W 080°07'0 0.0
2017-Nov-15 02:30N 26°06' W 080°07'0 0.0
2017-Nov-15 02:00N 26°06' W 080°07'0 0.0
2017-Nov-15 01:30N 26°06' W 080°07'0 0.0
2017-Nov-15 01:00N 26°06' W 080°07'1 1.9
2017-Nov-15 00:30N 26°06' W 080°06'3 6.7
2017-Nov-15 00:00N 26°06' W 080°03'1 1.6
2017-Nov-14 23:30N 26°05' W 080°02'4 8.6
2017-Nov-14 23:00N 26°01' W 080°00'5 9.2
2017-Nov-14 22:30N 25°57' W 079°58'612.7
2017-Nov-14 22:00N 25°51' W 079°56'612.7
2017-Nov-14 21:30N 25°44' W 079°56'612.1
2017-Nov-14 21:00N 25°38' W 079°57'611.2
2017-Nov-14 20:30N 25°33' W 079°57'611.1
2017-Nov-14 20:00N 25°27' W 079°58'510.8
2017-Nov-14 19:30N 25°22' W 079°59'  
Track history (hours):
 
Tides and Currents Weather Stations Pressure Air Temp Water Temp Dewpoint Dewpoint Depression Visibility Wind Speed Wind Dir Waves Ship Positions

Pacific Reliance

Owner: Intrepid Ship Management, INC, jacksonville, FL. More information available from US FCC via Universal Licensing System and Coast Guard Vessel Documentation Center.

Last reported at 2017-Nov-23 10:59 UTC. Time now 2017-Nov-23 11:19 UTC.
Position N 39°51' W 075°16'.

Length 205 m; draft 6.5 m.

Type: Towing. MMSI: 367036000.

Date/timePositionNaut miles runAvg speedWind from/ knotsBaromVisibWave heightAir tempDewpointWater temp
2017-Nov-23 10:59N 39°51' W 075°16'0 0.0
2017-Nov-23 10:29N 39°51' W 075°16'0 0.0
2017-Nov-23 09:59N 39°51' W 075°16'0 0.0
2017-Nov-23 09:29N 39°51' W 075°16'0 0.0
2017-Nov-23 08:59N 39°51' W 075°16'0 0.0
2017-Nov-23 08:29N 39°51' W 075°16'0 0.0
2017-Nov-23 07:59N 39°51' W 075°16'0 0.0
2017-Nov-23 07:29N 39°51' W 075°16'0 0.0
2017-Nov-23 06:59N 39°51' W 075°16'0 0.0
2017-Nov-23 06:29N 39°51' W 075°16'0 0.0
2017-Nov-23 05:59N 39°51' W 075°16'0 0.0
2017-Nov-23 05:29N 39°51' W 075°16'0 0.0
2017-Nov-23 04:59N 39°51' W 075°16'0 0.0
2017-Nov-23 04:29N 39°51' W 075°16'0 0.0
2017-Nov-23 03:59N 39°51' W 075°16'0 0.0
2017-Nov-23 03:29N 39°51' W 075°16'0 0.0
2017-Nov-23 02:59N 39°51' W 075°16'0 0.0
2017-Nov-23 02:29N 39°51' W 075°16'0 0.0
2017-Nov-23 01:59N 39°51' W 075°16'0 0.0
2017-Nov-23 01:29N 39°51' W 075°16'0 0.0
2017-Nov-23 00:59N 39°51' W 075°16'0 0.0
2017-Nov-23 00:29N 39°51' W 075°16'0 0.0
2017-Nov-22 23:59N 39°51' W 075°16'0 0.0
2017-Nov-22 23:29N 39°51' W 075°16'0 0.0
2017-Nov-22 22:59N 39°51' W 075°16'0 0.0
2017-Nov-22 22:29N 39°51' W 075°16'0 0.0
2017-Nov-22 21:59N 39°51' W 075°16'0 0.0
2017-Nov-22 21:29N 39°51' W 075°16'0 0.0
2017-Nov-22 20:59N 39°51' W 075°16'0 0.0
2017-Nov-22 20:29N 39°51' W 075°16'0 0.0
2017-Nov-22 19:59N 39°51' W 075°16'0 0.0
2017-Nov-22 19:29N 39°51' W 075°16'  
2017-Nov-20 00:30N 39°01' W 075°14'1 1.1
2017-Nov-20 00:00N 39°00' W 075°13'  
2017-Nov-16 09:35N 27°02' W 079°53'1 9.4
2017-Nov-16 09:30N 27°01' W 079°53'5 9.4
2017-Nov-16 09:00N 26°57' W 079°53'5 9.1
2017-Nov-16 08:30N 26°52' W 079°53'5 9.3
2017-Nov-16 07:59N 26°47' W 079°53'5 9.8
2017-Nov-16 07:30N 26°43' W 079°53'5 9.3
2017-Nov-16 07:00N 26°38' W 079°53'5 9.3
2017-Nov-16 06:30N 26°34' W 079°54'5 9.2
2017-Nov-16 06:00N 26°29' W 079°55'5 9.5
2017-Nov-16 05:30N 26°24' W 079°55'5 9.9
2017-Nov-16 05:00N 26°19' W 079°56'5 9.8
2017-Nov-16 04:30N 26°15' W 079°56'5 9.4
2017-Nov-16 04:00N 26°10' W 079°57'5 9.6
2017-Nov-16 03:30N 26°06' W 080°00'5 9.2
2017-Nov-16 03:00N 26°06' W 080°05'2 3.4
2017-Nov-16 02:30N 26°06' W 080°07'0 0.0
2017-Nov-16 02:00N 26°06' W 080°07'0 0.0
2017-Nov-16 01:30N 26°06' W 080°07'0 0.0
2017-Nov-16 01:00N 26°06' W 080°07'0 0.0
2017-Nov-16 00:30N 26°06' W 080°07'0 0.0
2017-Nov-15 23:51N 26°06' W 080°07'0 0.0
2017-Nov-15 23:21N 26°06' W 080°07'0 0.0
2017-Nov-15 22:54N 26°06' W 080°07'0 0.0
2017-Nov-15 22:24N 26°06' W 080°07'0 0.0
2017-Nov-15 21:54N 26°06' W 080°07'0 0.0
2017-Nov-15 21:24N 26°06' W 080°07'0 0.0
2017-Nov-15 20:54N 26°06' W 080°07'0 0.0
2017-Nov-15 20:24N 26°06' W 080°07'0 0.0
2017-Nov-15 19:54N 26°06' W 080°07'0 0.0
2017-Nov-15 19:27N 26°06' W 080°07'0 0.0
2017-Nov-15 18:57N 26°06' W 080°07'0 0.0
2017-Nov-15 18:27N 26°06' W 080°07'0 0.0
2017-Nov-15 17:57N 26°06' W 080°07'0 0.0
2017-Nov-15 17:27N 26°06' W 080°07'0 0.0
2017-Nov-15 17:00N 26°06' W 080°07'0 0.0
2017-Nov-15 16:30N 26°06' W 080°07'0 0.0
2017-Nov-15 15:57N 26°06' W 080°07'0 0.0
2017-Nov-15 15:30N 26°06' W 080°07'0 0.0
2017-Nov-15 15:00N 26°06' W 080°07'0 0.0
2017-Nov-15 14:30N 26°06' W 080°07'0 0.0
2017-Nov-15 14:00N 26°06' W 080°07'0 0.0
2017-Nov-15 13:30N 26°06' W 080°07'0 0.0
2017-Nov-15 13:00N 26°06' W 080°07'0 0.0
2017-Nov-15 12:30N 26°06' W 080°07'0 0.0
2017-Nov-15 12:00N 26°06' W 080°07'0 0.0
2017-Nov-15 11:30N 26°06' W 080°07'0 0.0
2017-Nov-15 11:00N 26°06' W 080°07'0 0.0
2017-Nov-15 10:30N 26°06' W 080°07'0 0.0
2017-Nov-15 09:51N 26°06' W 080°07'0 0.0
2017-Nov-15 09:21N 26°06' W 080°07'0 0.0
2017-Nov-15 08:51N 26°06' W 080°07'0 0.0
2017-Nov-15 08:24N 26°06' W 080°07'0 0.0
2017-Nov-15 07:54N 26°06' W 080°07'0 0.0
2017-Nov-15 07:24N 26°06' W 080°07'0 0.0
2017-Nov-15 06:54N 26°06' W 080°07'0 0.0
2017-Nov-15 06:24N 26°06' W 080°07'0 0.0
2017-Nov-15 05:57N 26°06' W 080°07'0 0.0
2017-Nov-15 05:27N 26°06' W 080°07'0 0.0
2017-Nov-15 04:57N 26°06' W 080°07'0 0.0
2017-Nov-15 04:27N 26°06' W 080°07'0 0.0
2017-Nov-15 03:57N 26°06' W 080°07'0 0.0
2017-Nov-15 03:27N 26°06' W 080°07'0 0.0
2017-Nov-15 03:00N 26°06' W 080°07'0 0.0
2017-Nov-15 02:30N 26°06' W 080°07'0 0.0
2017-Nov-15 02:00N 26°06' W 080°07'0 0.0
2017-Nov-15 01:30N 26°06' W 080°07'0 0.0
2017-Nov-15 01:00N 26°06' W 080°07'1 1.9
2017-Nov-15 00:30N 26°06' W 080°06'3 6.7
2017-Nov-15 00:00N 26°06' W 080°03'1 1.6
2017-Nov-14 23:30N 26°05' W 080°02'4 8.6
2017-Nov-14 23:00N 26°01' W 080°00'5 9.2
2017-Nov-14 22:30N 25°57' W 079°58'612.7
2017-Nov-14 22:00N 25°51' W 079°56'612.7
2017-Nov-14 21:30N 25°44' W 079°56'612.1
2017-Nov-14 21:00N 25°38' W 079°57'611.2
2017-Nov-14 20:30N 25°33' W 079°57'611.1
2017-Nov-14 20:00N 25°27' W 079°58'510.8
2017-Nov-14 19:30N 25°22' W 079°59'  

Dump ship's entire track history